sensor_id;sensor_type;location;lat;lon;timestamp;P1;durP1;ratioP1;P2;durP2;ratioP2
47922;SDS011;33688;44.354;9.228;2023-10-09T00:00:15;4.13;;;3.78;;
47922;SDS011;33688;44.354;9.228;2023-10-09T00:03:00;4.32;;;4.03;;
47922;SDS011;33688;44.354;9.228;2023-10-09T00:05:27;3.60;;;3.30;;
47922;SDS011;33688;44.354;9.228;2023-10-09T00:08:06;3.58;;;3.28;;
47922;SDS011;33688;44.354;9.228;2023-10-09T00:10:34;4.05;;;3.70;;
47922;SDS011;33688;44.354;9.228;2023-10-09T00:13:35;3.75;;;3.45;;
47922;SDS011;33688;44.354;9.228;2023-10-09T00:16:05;3.38;;;3.13;;
47922;SDS011;33688;44.354;9.228;2023-10-09T00:18:40;3.83;;;3.53;;
47922;SDS011;33688;44.354;9.228;2023-10-09T00:21:17;3.28;;;3.08;;
47922;SDS011;33688;44.354;9.228;2023-10-09T00:23:53;3.60;;;3.30;;
47922;SDS011;33688;44.354;9.228;2023-10-09T00:26:24;3.65;;;3.35;;
47922;SDS011;33688;44.354;9.228;2023-10-09T00:28:51;3.80;;;3.50;;
47922;SDS011;33688;44.354;9.228;2023-10-09T00:31:18;3.53;;;3.22;;
47922;SDS011;33688;44.354;9.228;2023-10-09T00:33:58;3.85;;;3.55;;
47922;SDS011;33688;44.354;9.228;2023-10-09T00:36:31;3.55;;;3.20;;
47922;SDS011;33688;44.354;9.228;2023-10-09T00:38:58;3.65;;;3.35;;
47922;SDS011;33688;44.354;9.228;2023-10-09T00:41:37;4.20;;;3.83;;
47922;SDS011;33688;44.354;9.228;2023-10-09T00:44:02;3.67;;;3.38;;
47922;SDS011;33688;44.354;9.228;2023-10-09T00:46:33;3.40;;;3.10;;
47922;SDS011;33688;44.354;9.228;2023-10-09T00:49:00;3.80;;;3.50;;
47922;SDS011;33688;44.354;9.228;2023-10-09T00:51:28;3.58;;;3.30;;
47922;SDS011;33688;44.354;9.228;2023-10-09T00:54:01;3.55;;;3.25;;
47922;SDS011;33688;44.354;9.228;2023-10-09T00:56:32;3.40;;;3.10;;
47922;SDS011;33688;44.354;9.228;2023-10-09T00:59:08;3.55;;;3.25;;
47922;SDS011;33688;44.354;9.228;2023-10-09T01:01:40;3.88;;;3.58;;
47922;SDS011;33688;44.354;9.228;2023-10-09T01:04:14;3.60;;;3.30;;
47922;SDS011;33688;44.354;9.228;2023-10-09T01:06:43;3.95;;;3.65;;
47922;SDS011;33688;44.354;9.228;2023-10-09T01:09:29;3.72;;;3.42;;
47922;SDS011;33688;44.354;9.228;2023-10-09T01:12:02;4.00;;;3.70;;
47922;SDS011;33688;44.354;9.228;2023-10-09T01:14:32;3.90;;;3.60;;
47922;SDS011;33688;44.354;9.228;2023-10-09T01:17:03;3.80;;;3.47;;
47922;SDS011;33688;44.354;9.228;2023-10-09T01:19:37;3.83;;;3.50;;
47922;SDS011;33688;44.354;9.228;2023-10-09T01:22:03;3.88;;;3.58;;
47922;SDS011;33688;44.354;9.228;2023-10-09T01:24:37;3.70;;;3.40;;
47922;SDS011;33688;44.354;9.228;2023-10-09T01:27:04;3.80;;;3.50;;
47922;SDS011;33688;44.354;9.228;2023-10-09T01:29:39;3.63;;;3.33;;
47922;SDS011;33688;44.354;9.228;2023-10-09T01:32:07;3.80;;;3.50;;
47922;SDS011;33688;44.354;9.228;2023-10-09T01:34:42;3.35;;;3.05;;
47922;SDS011;33688;44.354;9.228;2023-10-09T01:37:09;3.65;;;3.35;;
47922;SDS011;33688;44.354;9.228;2023-10-09T01:39:58;3.25;;;2.97;;
47922;SDS011;33688;44.354;9.228;2023-10-09T01:42:25;3.67;;;3.38;;
47922;SDS011;33688;44.354;9.228;2023-10-09T01:44:57;4.00;;;3.60;;
47922;SDS011;33688;44.354;9.228;2023-10-09T01:47:23;3.05;;;2.80;;
47922;SDS011;33688;44.354;9.228;2023-10-09T01:49:51;3.20;;;2.90;;
47922;SDS011;33688;44.354;9.228;2023-10-09T01:55:09;4.25;;;3.50;;
47922;SDS011;33688;44.354;9.228;2023-10-09T01:57:55;3.50;;;3.20;;
47922;SDS011;33688;44.354;9.228;2023-10-09T02:00:24;3.65;;;3.35;;
47922;SDS011;33688;44.354;9.228;2023-10-09T02:02:55;4.22;;;3.85;;
47922;SDS011;33688;44.354;9.228;2023-10-09T02:05:21;3.45;;;3.15;;
47922;SDS011;33688;44.354;9.228;2023-10-09T02:07:47;3.63;;;3.25;;
47922;SDS011;33688;44.354;9.228;2023-10-09T02:10:21;3.22;;;3.00;;
47922;SDS011;33688;44.354;9.228;2023-10-09T02:13:00;3.67;;;3.38;;
47922;SDS011;33688;44.354;9.228;2023-10-09T02:15:37;3.83;;;3.53;;
47922;SDS011;33688;44.354;9.228;2023-10-09T02:18:12;3.80;;;3.50;;
47922;SDS011;33688;44.354;9.228;2023-10-09T02:20:48;3.80;;;3.38;;
47922;SDS011;33688;44.354;9.228;2023-10-09T02:23:27;3.88;;;3.55;;
47922;SDS011;33688;44.354;9.228;2023-10-09T02:26:17;3.47;;;3.17;;
47922;SDS011;33688;44.354;9.228;2023-10-09T02:28:44;3.17;;;2.97;;
47922;SDS011;33688;44.354;9.228;2023-10-09T02:31:19;3.35;;;3.08;;
47922;SDS011;33688;44.354;9.228;2023-10-09T02:33:48;3.58;;;3.28;;
47922;SDS011;33688;44.354;9.228;2023-10-09T02:36:19;3.70;;;3.40;;
47922;SDS011;33688;44.354;9.228;2023-10-09T02:38:45;3.25;;;3.03;;
47922;SDS011;33688;44.354;9.228;2023-10-09T02:41:16;3.58;;;3.28;;
47922;SDS011;33688;44.354;9.228;2023-10-09T02:43:45;3.90;;;3.60;;
47922;SDS011;33688;44.354;9.228;2023-10-09T02:46:18;3.83;;;3.53;;
47922;SDS011;33688;44.354;9.228;2023-10-09T02:48:55;3.67;;;3.40;;
47922;SDS011;33688;44.354;9.228;2023-10-09T02:51:28;3.55;;;3.25;;
47922;SDS011;33688;44.354;9.228;2023-10-09T02:54:00;3.70;;;3.40;;
47922;SDS011;33688;44.354;9.228;2023-10-09T02:56:34;3.47;;;3.17;;
47922;SDS011;33688;44.354;9.228;2023-10-09T02:59:13;3.35;;;3.08;;
47922;SDS011;33688;44.354;9.228;2023-10-09T03:01:39;3.78;;;3.47;;
47922;SDS011;33688;44.354;9.228;2023-10-09T03:04:06;3.78;;;3.50;;
47922;SDS011;33688;44.354;9.228;2023-10-09T03:06:36;3.22;;;2.92;;
47922;SDS011;33688;44.354;9.228;2023-10-09T03:09:10;3.17;;;2.97;;
47922;SDS011;33688;44.354;9.228;2023-10-09T03:11:45;3.15;;;2.90;;
47922;SDS011;33688;44.354;9.228;2023-10-09T03:14:19;3.05;;;2.85;;
47922;SDS011;33688;44.354;9.228;2023-10-09T03:16:46;3.55;;;3.25;;
47922;SDS011;33688;44.354;9.228;2023-10-09T03:19:15;3.30;;;3.10;;
47922;SDS011;33688;44.354;9.228;2023-10-09T03:21:41;3.35;;;3.15;;
47922;SDS011;33688;44.354;9.228;2023-10-09T03:24:09;3.63;;;3.33;;
47922;SDS011;33688;44.354;9.228;2023-10-09T03:26:36;3.72;;;3.42;;
47922;SDS011;33688;44.354;9.228;2023-10-09T03:29:04;3.72;;;3.42;;
47922;SDS011;33688;44.354;9.228;2023-10-09T03:31:32;3.60;;;3.30;;
47922;SDS011;33688;44.354;9.228;2023-10-09T03:33:59;3.63;;;3.33;;
47922;SDS011;33688;44.354;9.228;2023-10-09T03:36:26;3.30;;;3.00;;
47922;SDS011;33688;44.354;9.228;2023-10-09T03:38:52;3.35;;;3.05;;
47922;SDS011;33688;44.354;9.228;2023-10-09T03:41:26;3.30;;;3.08;;
47922;SDS011;33688;44.354;9.228;2023-10-09T03:43:54;3.53;;;3.22;;
47922;SDS011;33688;44.354;9.228;2023-10-09T03:46:20;3.88;;;3.58;;
47922;SDS011;33688;44.354;9.228;2023-10-09T03:48:48;3.50;;;3.20;;
47922;SDS011;33688;44.354;9.228;2023-10-09T03:51:15;3.30;;;3.00;;
47922;SDS011;33688;44.354;9.228;2023-10-09T03:53:47;3.78;;;3.42;;
47922;SDS011;33688;44.354;9.228;2023-10-09T03:56:14;3.38;;;3.08;;
47922;SDS011;33688;44.354;9.228;2023-10-09T03:58:45;3.30;;;3.10;;
47922;SDS011;33688;44.354;9.228;2023-10-09T04:01:12;3.45;;;3.15;;
47922;SDS011;33688;44.354;9.228;2023-10-09T04:03:56;3.63;;;3.33;;
47922;SDS011;33688;44.354;9.228;2023-10-09T04:06:27;3.50;;;3.20;;
47922;SDS011;33688;44.354;9.228;2023-10-09T04:08:56;3.10;;;2.90;;
47922;SDS011;33688;44.354;9.228;2023-10-09T04:11:24;3.55;;;3.25;;
47922;SDS011;33688;44.354;9.228;2023-10-09T04:16:20;3.72;;;3.38;;
47922;SDS011;33688;44.354;9.228;2023-10-09T04:19:06;3.15;;;2.95;;
47922;SDS011;33688;44.354;9.228;2023-10-09T04:21:39;3.72;;;3.30;;
47922;SDS011;33688;44.354;9.228;2023-10-09T04:24:09;3.55;;;3.25;;
47922;SDS011;33688;44.354;9.228;2023-10-09T04:26:48;4.35;;;3.47;;
47922;SDS011;33688;44.354;9.228;2023-10-09T04:29:21;3.38;;;3.08;;
47922;SDS011;33688;44.354;9.228;2023-10-09T04:31:53;3.30;;;3.10;;
47922;SDS011;33688;44.354;9.228;2023-10-09T04:34:26;3.53;;;3.22;;
47922;SDS011;33688;44.354;9.228;2023-10-09T04:36:52;4.32;;;3.38;;
47922;SDS011;33688;44.354;9.228;2023-10-09T04:39:26;3.15;;;2.85;;
47922;SDS011;33688;44.354;9.228;2023-10-09T04:41:56;3.03;;;2.83;;
47922;SDS011;33688;44.354;9.228;2023-10-09T04:44:44;3.70;;;3.40;;
47922;SDS011;33688;44.354;9.228;2023-10-09T04:47:29;3.63;;;3.33;;
47922;SDS011;33688;44.354;9.228;2023-10-09T04:50:05;3.83;;;3.53;;
47922;SDS011;33688;44.354;9.228;2023-10-09T04:52:38;3.25;;;3.05;;
47922;SDS011;33688;44.354;9.228;2023-10-09T04:55:07;3.40;;;3.10;;
47922;SDS011;33688;44.354;9.228;2023-10-09T04:57:37;3.55;;;3.25;;
47922;SDS011;33688;44.354;9.228;2023-10-09T05:00:17;3.80;;;3.17;;
47922;SDS011;33688;44.354;9.228;2023-10-09T05:02:53;3.05;;;2.85;;
47922;SDS011;33688;44.354;9.228;2023-10-09T05:05:26;3.55;;;3.25;;
47922;SDS011;33688;44.354;9.228;2023-10-09T05:08:10;3.13;;;2.90;;
47922;SDS011;33688;44.354;9.228;2023-10-09T05:10:53;3.10;;;2.80;;
47922;SDS011;33688;44.354;9.228;2023-10-09T05:13:34;3.30;;;3.10;;
47922;SDS011;33688;44.354;9.228;2023-10-09T05:16:08;3.10;;;2.90;;
47922;SDS011;33688;44.354;9.228;2023-10-09T05:18:46;3.70;;;3.40;;
47922;SDS011;33688;44.354;9.228;2023-10-09T05:21:35;3.85;;;3.08;;
47922;SDS011;33688;44.354;9.228;2023-10-09T05:24:12;3.35;;;3.00;;
47922;SDS011;33688;44.354;9.228;2023-10-09T05:26:42;3.00;;;2.80;;
47922;SDS011;33688;44.354;9.228;2023-10-09T05:29:13;3.28;;;2.97;;
47922;SDS011;33688;44.354;9.228;2023-10-09T05:31:49;3.60;;;3.30;;
47922;SDS011;33688;44.354;9.228;2023-10-09T05:34:25;3.47;;;3.17;;
47922;SDS011;33688;44.354;9.228;2023-10-09T05:37:10;4.03;;;2.92;;
47922;SDS011;33688;44.354;9.228;2023-10-09T05:39:43;3.33;;;3.10;;
47922;SDS011;33688;44.354;9.228;2023-10-09T05:42:23;2.97;;;2.78;;
47922;SDS011;33688;44.354;9.228;2023-10-09T05:44:54;3.75;;;3.35;;
47922;SDS011;33688;44.354;9.228;2023-10-09T05:47:39;3.65;;;3.35;;
47922;SDS011;33688;44.354;9.228;2023-10-09T05:50:22;3.83;;;3.30;;
47922;SDS011;33688;44.354;9.228;2023-10-09T05:52:52;3.38;;;3.17;;
47922;SDS011;33688;44.354;9.228;2023-10-09T05:55:21;3.83;;;3.40;;
47922;SDS011;33688;44.354;9.228;2023-10-09T05:57:53;3.63;;;3.33;;
47922;SDS011;33688;44.354;9.228;2023-10-09T06:00:39;3.75;;;3.45;;
47922;SDS011;33688;44.354;9.228;2023-10-09T06:03:24;3.72;;;3.42;;
47922;SDS011;33688;44.354;9.228;2023-10-09T06:06:10;3.83;;;3.53;;
47922;SDS011;33688;44.354;9.228;2023-10-09T06:08:43;3.55;;;3.25;;
47922;SDS011;33688;44.354;9.228;2023-10-09T06:11:10;3.63;;;2.80;;
47922;SDS011;33688;44.354;9.228;2023-10-09T06:13:56;3.10;;;2.90;;
47922;SDS011;33688;44.354;9.228;2023-10-09T06:16:38;3.30;;;3.00;;
47922;SDS011;33688;44.354;9.228;2023-10-09T06:19:14;3.25;;;2.95;;
47922;SDS011;33688;44.354;9.228;2023-10-09T06:22:04;4.18;;;3.40;;
47922;SDS011;33688;44.354;9.228;2023-10-09T06:24:48;4.97;;;4.57;;
47922;SDS011;33688;44.354;9.228;2023-10-09T06:27:19;5.47;;;4.97;;
47922;SDS011;33688;44.354;9.228;2023-10-09T06:32:37;7.88;;;6.88;;
47922;SDS011;33688;44.354;9.228;2023-10-09T06:35:14;8.98;;;6.50;;
47922;SDS011;33688;44.354;9.228;2023-10-09T06:37:56;10.90;;;8.57;;
47922;SDS011;33688;44.354;9.228;2023-10-09T06:40:46;10.05;;;8.18;;
47922;SDS011;33688;44.354;9.228;2023-10-09T06:43:31;12.23;;;10.32;;
47922;SDS011;33688;44.354;9.228;2023-10-09T06:46:13;14.88;;;13.13;;
47922;SDS011;33688;44.354;9.228;2023-10-09T06:48:49;19.23;;;14.43;;
47922;SDS011;33688;44.354;9.228;2023-10-09T06:51:21;17.15;;;13.55;;
47922;SDS011;33688;44.354;9.228;2023-10-09T06:53:51;17.77;;;13.23;;
47922;SDS011;33688;44.354;9.228;2023-10-09T06:56:24;20.05;;;15.07;;
47922;SDS011;33688;44.354;9.228;2023-10-09T06:58:54;23.17;;;15.57;;
47922;SDS011;33688;44.354;9.228;2023-10-09T07:01:49;20.42;;;15.48;;
47922;SDS011;33688;44.354;9.228;2023-10-09T07:04:34;17.45;;;14.43;;
47922;SDS011;33688;44.354;9.228;2023-10-09T07:07:02;21.90;;;15.23;;
47922;SDS011;33688;44.354;9.228;2023-10-09T07:09:38;22.05;;;13.82;;
47922;SDS011;33688;44.354;9.228;2023-10-09T07:12:22;23.25;;;14.77;;
47922;SDS011;33688;44.354;9.228;2023-10-09T07:14:52;16.17;;;13.48;;
47922;SDS011;33688;44.354;9.228;2023-10-09T07:17:47;17.77;;;14.35;;
47922;SDS011;33688;44.354;9.228;2023-10-09T07:20:13;15.07;;;13.05;;
47922;SDS011;33688;44.354;9.228;2023-10-09T07:22:42;15.07;;;13.52;;
47922;SDS011;33688;44.354;9.228;2023-10-09T07:25:19;15.55;;;13.23;;
47922;SDS011;33688;44.354;9.228;2023-10-09T07:28:06;17.27;;;13.60;;
47922;SDS011;33688;44.354;9.228;2023-10-09T07:31:01;21.15;;;13.93;;
47922;SDS011;33688;44.354;9.228;2023-10-09T07:33:35;28.00;;;13.45;;
47922;SDS011;33688;44.354;9.228;2023-10-09T07:36:19;17.05;;;14.30;;
47922;SDS011;33688;44.354;9.228;2023-10-09T07:39:05;17.95;;;14.38;;
47922;SDS011;33688;44.354;9.228;2023-10-09T07:41:41;16.08;;;13.38;;
47922;SDS011;33688;44.354;9.228;2023-10-09T07:44:20;25.48;;;14.38;;
47922;SDS011;33688;44.354;9.228;2023-10-09T07:47:02;18.00;;;14.85;;
47922;SDS011;33688;44.354;9.228;2023-10-09T07:49:47;18.13;;;14.18;;
47922;SDS011;33688;44.354;9.228;2023-10-09T07:52:22;16.00;;;12.90;;
47922;SDS011;33688;44.354;9.228;2023-10-09T07:54:49;15.32;;;13.05;;
47922;SDS011;33688;44.354;9.228;2023-10-09T07:57:28;17.38;;;13.93;;
47922;SDS011;33688;44.354;9.228;2023-10-09T08:00:03;15.32;;;13.13;;
47922;SDS011;33688;44.354;9.228;2023-10-09T08:02:49;17.10;;;13.02;;
47922;SDS011;33688;44.354;9.228;2023-10-09T08:05:14;20.20;;;13.57;;
47922;SDS011;33688;44.354;9.228;2023-10-09T08:07:48;18.48;;;13.52;;
47922;SDS011;33688;44.354;9.228;2023-10-09T08:10:24;21.42;;;14.07;;
47922;SDS011;33688;44.354;9.228;2023-10-09T08:12:51;17.95;;;12.85;;
47922;SDS011;33688;44.354;9.228;2023-10-09T08:15:45;18.38;;;13.77;;
47922;SDS011;33688;44.354;9.228;2023-10-09T08:21:10;22.23;;;14.40;;
47922;SDS011;33688;44.354;9.228;2023-10-09T08:23:40;20.02;;;15.05;;
47922;SDS011;33688;44.354;9.228;2023-10-09T08:26:15;15.77;;;13.30;;
47922;SDS011;33688;44.354;9.228;2023-10-09T08:28:54;17.25;;;14.00;;
47922;SDS011;33688;44.354;9.228;2023-10-09T08:34:43;15.45;;;13.73;;
47922;SDS011;33688;44.354;9.228;2023-10-09T08:37:14;16.15;;;13.38;;
47922;SDS011;33688;44.354;9.228;2023-10-09T08:39:40;16.45;;;13.88;;
47922;SDS011;33688;44.354;9.228;2023-10-09T08:42:08;16.02;;;13.57;;
47922;SDS011;33688;44.354;9.228;2023-10-09T08:44:38;17.55;;;14.05;;
47922;SDS011;33688;44.354;9.228;2023-10-09T08:47:10;19.60;;;13.13;;
47922;SDS011;33688;44.354;9.228;2023-10-09T08:49:37;17.42;;;12.93;;
47922;SDS011;33688;44.354;9.228;2023-10-09T08:52:03;15.15;;;13.18;;
47922;SDS011;33688;44.354;9.228;2023-10-09T08:54:31;16.88;;;13.48;;
47922;SDS011;33688;44.354;9.228;2023-10-09T08:56:59;15.75;;;13.40;;
47922;SDS011;33688;44.354;9.228;2023-10-09T08:59:27;17.63;;;13.20;;
47922;SDS011;33688;44.354;9.228;2023-10-09T09:01:53;16.05;;;12.73;;
47922;SDS011;33688;44.354;9.228;2023-10-09T09:07:06;15.00;;;12.88;;
47922;SDS011;33688;44.354;9.228;2023-10-09T09:09:54;14.70;;;12.32;;
47922;SDS011;33688;44.354;9.228;2023-10-09T09:12:22;13.57;;;12.18;;
47922;SDS011;33688;44.354;9.228;2023-10-09T09:14:49;14.45;;;11.77;;
47922;SDS011;33688;44.354;9.228;2023-10-09T09:17:22;13.15;;;11.48;;
47922;SDS011;33688;44.354;9.228;2023-10-09T09:19:55;13.25;;;11.70;;
47922;SDS011;33688;44.354;9.228;2023-10-09T09:24:58;14.73;;;12.38;;
47922;SDS011;33688;44.354;9.228;2023-10-09T09:27:49;14.60;;;11.80;;
47922;SDS011;33688;44.354;9.228;2023-10-09T09:30:27;17.00;;;12.85;;
47922;SDS011;33688;44.354;9.228;2023-10-09T09:32:59;16.15;;;11.93;;
47922;SDS011;33688;44.354;9.228;2023-10-09T09:36:00;15.10;;;11.23;;
47922;SDS011;33688;44.354;9.228;2023-10-09T09:38:31;13.30;;;11.98;;
47922;SDS011;33688;44.354;9.228;2023-10-09T09:41:10;15.73;;;13.40;;
47922;SDS011;33688;44.354;9.228;2023-10-09T09:43:37;14.10;;;11.80;;
47922;SDS011;33688;44.354;9.228;2023-10-09T09:46:11;13.43;;;11.40;;
47922;SDS011;33688;44.354;9.228;2023-10-09T09:48:38;12.85;;;11.30;;
47922;SDS011;33688;44.354;9.228;2023-10-09T09:51:11;12.48;;;11.20;;
47922;SDS011;33688;44.354;9.228;2023-10-09T09:53:40;16.45;;;12.10;;
47922;SDS011;33688;44.354;9.228;2023-10-09T09:56:06;14.77;;;11.25;;
47922;SDS011;33688;44.354;9.228;2023-10-09T09:58:34;17.52;;;11.75;;
47922;SDS011;33688;44.354;9.228;2023-10-09T10:01:10;16.15;;;11.02;;
47922;SDS011;33688;44.354;9.228;2023-10-09T10:03:49;20.25;;;12.00;;
47922;SDS011;33688;44.354;9.228;2023-10-09T10:06:45;14.48;;;11.57;;
47922;SDS011;33688;44.354;9.228;2023-10-09T10:12:08;11.75;;;10.57;;
47922;SDS011;33688;44.354;9.228;2023-10-09T10:15:10;11.05;;;9.85;;
47922;SDS011;33688;44.354;9.228;2023-10-09T10:20:24;14.75;;;11.48;;
47922;SDS011;33688;44.354;9.228;2023-10-09T10:25:44;11.63;;;10.45;;
47922;SDS011;33688;44.354;9.228;2023-10-09T10:28:20;12.43;;;10.93;;
47922;SDS011;33688;44.354;9.228;2023-10-09T10:31:06;15.70;;;10.10;;
47922;SDS011;33688;44.354;9.228;2023-10-09T10:36:32;14.50;;;10.63;;
47922;SDS011;33688;44.354;9.228;2023-10-09T10:39:00;13.38;;;10.32;;
47922;SDS011;33688;44.354;9.228;2023-10-09T10:41:35;13.43;;;11.52;;
47922;SDS011;33688;44.354;9.228;2023-10-09T10:44:16;11.50;;;10.35;;
47922;SDS011;33688;44.354;9.228;2023-10-09T10:47:09;13.18;;;9.55;;
47922;SDS011;33688;44.354;9.228;2023-10-09T10:49:56;12.88;;;10.82;;
47922;SDS011;33688;44.354;9.228;2023-10-09T10:52:36;12.00;;;10.07;;
47922;SDS011;33688;44.354;9.228;2023-10-09T10:57:55;10.95;;;9.85;;
47922;SDS011;33688;44.354;9.228;2023-10-09T11:00:27;14.23;;;10.13;;
47922;SDS011;33688;44.354;9.228;2023-10-09T11:03:21;11.02;;;9.68;;
47922;SDS011;33688;44.354;9.228;2023-10-09T11:05:56;12.18;;;9.65;;
47922;SDS011;33688;44.354;9.228;2023-10-09T11:08:44;12.93;;;9.80;;
47922;SDS011;33688;44.354;9.228;2023-10-09T11:11:22;11.40;;;9.73;;
47922;SDS011;33688;44.354;9.228;2023-10-09T11:13:48;10.70;;;9.57;;
47922;SDS011;33688;44.354;9.228;2023-10-09T11:16:24;13.55;;;10.40;;
47922;SDS011;33688;44.354;9.228;2023-10-09T11:19:13;11.45;;;9.63;;
47922;SDS011;33688;44.354;9.228;2023-10-09T11:21:53;10.23;;;9.15;;
47922;SDS011;33688;44.354;9.228;2023-10-09T11:24:43;10.35;;;9.35;;
47922;SDS011;33688;44.354;9.228;2023-10-09T11:27:12;11.75;;;9.45;;
47922;SDS011;33688;44.354;9.228;2023-10-09T11:29:50;10.60;;;9.50;;
47922;SDS011;33688;44.354;9.228;2023-10-09T11:32:20;11.80;;;9.38;;
47922;SDS011;33688;44.354;9.228;2023-10-09T11:35:11;10.57;;;9.30;;
47922;SDS011;33688;44.354;9.228;2023-10-09T11:37:54;12.35;;;9.55;;
47922;SDS011;33688;44.354;9.228;2023-10-09T11:40:31;11.35;;;9.20;;
47922;SDS011;33688;44.354;9.228;2023-10-09T11:43:44;10.07;;;9.07;;
47922;SDS011;33688;44.354;9.228;2023-10-09T11:46:17;9.95;;;8.55;;
47922;SDS011;33688;44.354;9.228;2023-10-09T11:49:04;9.80;;;8.80;;
47922;SDS011;33688;44.354;9.228;2023-10-09T11:51:47;10.65;;;9.35;;
47922;SDS011;33688;44.354;9.228;2023-10-09T11:54:32;10.27;;;9.18;;
47922;SDS011;33688;44.354;9.228;2023-10-09T11:57:00;10.10;;;9.07;;
47922;SDS011;33688;44.354;9.228;2023-10-09T11:59:26;11.52;;;9.20;;
47922;SDS011;33688;44.354;9.228;2023-10-09T12:02:05;10.98;;;8.88;;
47922;SDS011;33688;44.354;9.228;2023-10-09T12:04:38;10.30;;;9.23;;
47922;SDS011;33688;44.354;9.228;2023-10-09T12:07:08;10.15;;;9.18;;
47922;SDS011;33688;44.354;9.228;2023-10-09T12:09:36;11.10;;;9.77;;
47922;SDS011;33688;44.354;9.228;2023-10-09T12:12:06;9.70;;;8.45;;
47922;SDS011;33688;44.354;9.228;2023-10-09T12:14:36;9.98;;;8.98;;
47922;SDS011;33688;44.354;9.228;2023-10-09T12:17:07;9.90;;;8.43;;
47922;SDS011;33688;44.354;9.228;2023-10-09T12:19:37;9.60;;;8.70;;
47922;SDS011;33688;44.354;9.228;2023-10-09T12:22:06;10.13;;;8.98;;
47922;SDS011;33688;44.354;9.228;2023-10-09T12:24:41;9.65;;;8.68;;
47922;SDS011;33688;44.354;9.228;2023-10-09T12:27:08;10.07;;;8.68;;
47922;SDS011;33688;44.354;9.228;2023-10-09T12:29:38;9.48;;;8.57;;
47922;SDS011;33688;44.354;9.228;2023-10-09T12:32:10;11.55;;;9.38;;
47922;SDS011;33688;44.354;9.228;2023-10-09T12:34:36;9.55;;;8.38;;
47922;SDS011;33688;44.354;9.228;2023-10-09T12:37:03;10.05;;;9.02;;
47922;SDS011;33688;44.354;9.228;2023-10-09T12:39:30;10.38;;;8.82;;
47922;SDS011;33688;44.354;9.228;2023-10-09T12:41:59;10.63;;;8.88;;
47922;SDS011;33688;44.354;9.228;2023-10-09T12:44:34;9.95;;;8.55;;
47922;SDS011;33688;44.354;9.228;2023-10-09T12:47:09;11.25;;;9.05;;
47922;SDS011;33688;44.354;9.228;2023-10-09T12:49:38;9.55;;;8.65;;
47922;SDS011;33688;44.354;9.228;2023-10-09T12:52:08;10.40;;;9.32;;
47922;SDS011;33688;44.354;9.228;2023-10-09T12:54:42;11.90;;;9.50;;
47922;SDS011;33688;44.354;9.228;2023-10-09T12:57:08;10.25;;;9.07;;
47922;SDS011;33688;44.354;9.228;2023-10-09T12:59:40;10.88;;;9.20;;
47922;SDS011;33688;44.354;9.228;2023-10-09T13:02:11;11.05;;;9.18;;
47922;SDS011;33688;44.354;9.228;2023-10-09T13:04:39;16.00;;;9.82;;
47922;SDS011;33688;44.354;9.228;2023-10-09T13:07:07;13.50;;;9.85;;
47922;SDS011;33688;44.354;9.228;2023-10-09T13:09:33;10.75;;;9.65;;
47922;SDS011;33688;44.354;9.228;2023-10-09T13:12:22;10.57;;;9.25;;
47922;SDS011;33688;44.354;9.228;2023-10-09T13:14:48;11.82;;;9.30;;
47922;SDS011;33688;44.354;9.228;2023-10-09T13:17:14;14.52;;;10.13;;
47922;SDS011;33688;44.354;9.228;2023-10-09T13:19:40;10.10;;;8.65;;
47922;SDS011;33688;44.354;9.228;2023-10-09T13:22:06;10.77;;;8.88;;
47922;SDS011;33688;44.354;9.228;2023-10-09T13:24:38;14.10;;;9.88;;
47922;SDS011;33688;44.354;9.228;2023-10-09T13:27:05;9.95;;;8.50;;
47922;SDS011;33688;44.354;9.228;2023-10-09T13:29:34;10.40;;;9.23;;
47922;SDS011;33688;44.354;9.228;2023-10-09T13:32:00;9.65;;;8.32;;
47922;SDS011;33688;44.354;9.228;2023-10-09T13:34:28;9.73;;;8.63;;
47922;SDS011;33688;44.354;9.228;2023-10-09T13:36:54;10.27;;;8.60;;
47922;SDS011;33688;44.354;9.228;2023-10-09T13:39:20;9.95;;;7.43;;
47922;SDS011;33688;44.354;9.228;2023-10-09T13:41:53;8.30;;;7.50;;
47922;SDS011;33688;44.354;9.228;2023-10-09T13:46:52;9.65;;;8.68;;
47922;SDS011;33688;44.354;9.228;2023-10-09T13:49:22;8.35;;;7.55;;
47922;SDS011;33688;44.354;9.228;2023-10-09T13:51:50;9.05;;;8.07;;
47922;SDS011;33688;44.354;9.228;2023-10-09T13:54:16;11.25;;;8.45;;
47922;SDS011;33688;44.354;9.228;2023-10-09T13:56:49;8.07;;;7.25;;
47922;SDS011;33688;44.354;9.228;2023-10-09T13:59:21;8.93;;;6.35;;
47922;SDS011;33688;44.354;9.228;2023-10-09T14:01:53;7.80;;;6.78;;
47922;SDS011;33688;44.354;9.228;2023-10-09T14:04:23;7.65;;;6.47;;
47922;SDS011;33688;44.354;9.228;2023-10-09T14:06:49;12.10;;;6.95;;
47922;SDS011;33688;44.354;9.228;2023-10-09T14:09:27;6.97;;;6.13;;
47922;SDS011;33688;44.354;9.228;2023-10-09T14:11:59;7.90;;;5.90;;
47922;SDS011;33688;44.354;9.228;2023-10-09T14:14:41;8.88;;;6.90;;
47922;SDS011;33688;44.354;9.228;2023-10-09T14:17:20;11.35;;;6.25;;
47922;SDS011;33688;44.354;9.228;2023-10-09T14:19:51;7.57;;;6.70;;
47922;SDS011;33688;44.354;9.228;2023-10-09T14:22:18;7.13;;;6.45;;
47922;SDS011;33688;44.354;9.228;2023-10-09T14:24:52;9.25;;;6.97;;
47922;SDS011;33688;44.354;9.228;2023-10-09T14:27:25;6.63;;;5.75;;
47922;SDS011;33688;44.354;9.228;2023-10-09T14:29:56;7.55;;;5.53;;
47922;SDS011;33688;44.354;9.228;2023-10-09T14:32:24;6.90;;;5.68;;
47922;SDS011;33688;44.354;9.228;2023-10-09T14:34:54;6.88;;;5.93;;
47922;SDS011;33688;44.354;9.228;2023-10-09T14:37:26;7.75;;;6.00;;
47922;SDS011;33688;44.354;9.228;2023-10-09T14:39:52;6.90;;;6.20;;
47922;SDS011;33688;44.354;9.228;2023-10-09T14:42:19;8.25;;;5.75;;
47922;SDS011;33688;44.354;9.228;2023-10-09T14:44:48;7.55;;;5.65;;
47922;SDS011;33688;44.354;9.228;2023-10-09T14:47:15;7.75;;;5.38;;
47922;SDS011;33688;44.354;9.228;2023-10-09T14:49:46;9.20;;;6.47;;
47922;SDS011;33688;44.354;9.228;2023-10-09T14:52:13;8.88;;;5.80;;
47922;SDS011;33688;44.354;9.228;2023-10-09T14:54:45;7.60;;;5.82;;
47922;SDS011;33688;44.354;9.228;2023-10-09T14:57:12;8.38;;;5.40;;
47922;SDS011;33688;44.354;9.228;2023-10-09T14:59:39;8.05;;;5.88;;
47922;SDS011;33688;44.354;9.228;2023-10-09T15:02:05;7.70;;;5.35;;
47922;SDS011;33688;44.354;9.228;2023-10-09T15:04:32;6.28;;;5.10;;
47922;SDS011;33688;44.354;9.228;2023-10-09T15:07:02;7.43;;;5.35;;
47922;SDS011;33688;44.354;9.228;2023-10-09T15:09:32;5.10;;;4.55;;
47922;SDS011;33688;44.354;9.228;2023-10-09T15:12:01;6.00;;;4.47;;
47922;SDS011;33688;44.354;9.228;2023-10-09T15:14:27;8.02;;;5.65;;
47922;SDS011;33688;44.354;9.228;2023-10-09T15:16:53;8.07;;;5.53;;
47922;SDS011;33688;44.354;9.228;2023-10-09T15:19:19;7.40;;;5.60;;
47922;SDS011;33688;44.354;9.228;2023-10-09T15:21:55;8.57;;;4.65;;
47922;SDS011;33688;44.354;9.228;2023-10-09T15:24:24;5.43;;;4.53;;
47922;SDS011;33688;44.354;9.228;2023-10-09T15:26:52;6.15;;;5.07;;
47922;SDS011;33688;44.354;9.228;2023-10-09T15:29:22;7.68;;;5.22;;
47922;SDS011;33688;44.354;9.228;2023-10-09T15:31:57;7.60;;;5.20;;
47922;SDS011;33688;44.354;9.228;2023-10-09T15:34:39;9.57;;;5.40;;
47922;SDS011;33688;44.354;9.228;2023-10-09T15:37:06;6.45;;;5.00;;
47922;SDS011;33688;44.354;9.228;2023-10-09T15:39:36;9.63;;;5.38;;
47922;SDS011;33688;44.354;9.228;2023-10-09T15:42:02;5.88;;;4.70;;
47922;SDS011;33688;44.354;9.228;2023-10-09T15:44:38;8.00;;;4.85;;
47922;SDS011;33688;44.354;9.228;2023-10-09T15:47:05;7.30;;;4.85;;
47922;SDS011;33688;44.354;9.228;2023-10-09T15:49:33;6.75;;;4.97;;
47922;SDS011;33688;44.354;9.228;2023-10-09T15:52:03;7.32;;;4.90;;